Batson, Texas
Current Conditions -  °F | °C
As of 8:15 PM on Sunday 25 Jan 2015 (Local Time) from KBMT Reporting Station
Clear Clear  
Wind Chill: 55°   Ceiling: Unl
Heat Index: 55°   Visibility: 10mi
Dew Point: 35°   Wind: 8mph
Humidity: 48%   Direction: 310°NW
Pressure: 30.06"   Gusts: NA
Location:  30.25°N, 94.61°W
Report Text: KBMT 260215Z AUTO 31007KT 10SM CLR 13/02 A3006 RMK AO2 T01250018
Loading
Personal Weather Stations






























Interactive Weather Map New forecast layout! Learn more

10-Day Weather Forecast

Advertisements
Track Severe Weather on mobile